sensor_id;sensor_type;location;lat;lon;timestamp;temperature;humidity
12119;DHT22;6123;48.864;9.200;2022-09-17T00:01:20;10.50;99.90
12119;DHT22;6123;48.864;9.200;2022-09-17T00:03:50;10.40;99.90
12119;DHT22;6123;48.864;9.200;2022-09-17T00:06:17;10.40;99.90
12119;DHT22;6123;48.864;9.200;2022-09-17T00:08:43;10.30;99.90
12119;DHT22;6123;48.864;9.200;2022-09-17T00:11:16;10.20;99.90
12119;DHT22;6123;48.864;9.200;2022-09-17T00:13:45;10.30;99.90
12119;DHT22;6123;48.864;9.200;2022-09-17T00:16:12;10.30;99.90
12119;DHT22;6123;48.864;9.200;2022-09-17T00:18:38;10.20;99.90
12119;DHT22;6123;48.864;9.200;2022-09-17T00:21:07;10.20;99.90
12119;DHT22;6123;48.864;9.200;2022-09-17T00:23:39;10.30;99.90
12119;DHT22;6123;48.864;9.200;2022-09-17T00:26:07;10.30;99.90
12119;DHT22;6123;48.864;9.200;2022-09-17T00:28:33;10.30;99.90
12119;DHT22;6123;48.864;9.200;2022-09-17T00:31:06;10.30;99.90
12119;DHT22;6123;48.864;9.200;2022-09-17T00:33:33;10.30;99.90
12119;DHT22;6123;48.864;9.200;2022-09-17T00:36:00;10.30;99.90
12119;DHT22;6123;48.864;9.200;2022-09-17T00:38:27;10.30;99.90
12119;DHT22;6123;48.864;9.200;2022-09-17T00:40:52;10.40;99.90
12119;DHT22;6123;48.864;9.200;2022-09-17T00:43:52;10.40;99.90
12119;DHT22;6123;48.864;9.200;2022-09-17T00:46:39;9.30;99.90
12119;DHT22;6123;48.864;9.200;2022-09-17T00:49:22;10.50;99.90
12119;DHT22;6123;48.864;9.200;2022-09-17T00:52:52;10.30;99.90
12119;DHT22;6123;48.864;9.200;2022-09-17T00:54:53;10.20;99.90
12119;DHT22;6123;48.864;9.200;2022-09-17T00:57:21;10.20;99.90
12119;DHT22;6123;48.864;9.200;2022-09-17T00:59:47;10.20;99.90
12119;DHT22;6123;48.864;9.200;2022-09-17T01:02:16;10.10;99.90
12119;DHT22;6123;48.864;9.200;2022-09-17T01:04:41;10.10;99.90
12119;DHT22;6123;48.864;9.200;2022-09-17T01:12:38;10.00;99.90
12119;DHT22;6123;48.864;9.200;2022-09-17T01:21:43;10.00;99.90
12119;DHT22;6123;48.864;9.200;2022-09-17T01:27:15;10.00;99.90
12119;DHT22;6123;48.864;9.200;2022-09-17T01:35:18;10.10;99.90
12119;DHT22;6123;48.864;9.200;2022-09-17T01:41:44;10.00;99.90
12119;DHT22;6123;48.864;9.200;2022-09-17T01:43:55;10.00;99.90
12119;DHT22;6123;48.864;9.200;2022-09-17T01:46:27;10.00;99.90
12119;DHT22;6123;48.864;9.200;2022-09-17T01:48:57;10.00;99.90
12119;DHT22;6123;48.864;9.200;2022-09-17T01:51:26;10.00;99.90
12119;DHT22;6123;48.864;9.200;2022-09-17T01:56:35;10.20;99.90
12119;DHT22;6123;48.864;9.200;2022-09-17T01:59:33;10.10;99.90
12119;DHT22;6123;48.864;9.200;2022-09-17T02:02:09;10.10;99.90
12119;DHT22;6123;48.864;9.200;2022-09-17T02:04:43;10.20;99.90
12119;DHT22;6123;48.864;9.200;2022-09-17T02:07:16;10.20;99.90
12119;DHT22;6123;48.864;9.200;2022-09-17T02:09:50;10.20;99.90
12119;DHT22;6123;48.864;9.200;2022-09-17T02:12:22;10.20;99.90
12119;DHT22;6123;48.864;9.200;2022-09-17T02:14:55;10.10;99.90
12119;DHT22;6123;48.864;9.200;2022-09-17T02:17:25;10.20;99.90
12119;DHT22;6123;48.864;9.200;2022-09-17T02:19:52;10.10;99.90
12119;DHT22;6123;48.864;9.200;2022-09-17T02:22:22;10.10;99.90
12119;DHT22;6123;48.864;9.200;2022-09-17T02:25:05;10.00;99.90
12119;DHT22;6123;48.864;9.200;2022-09-17T02:30:04;10.00;99.90
12119;DHT22;6123;48.864;9.200;2022-09-17T02:32:33;10.00;99.90
12119;DHT22;6123;48.864;9.200;2022-09-17T02:34:58;10.00;99.90
12119;DHT22;6123;48.864;9.200;2022-09-17T02:37:24;9.90;99.90
12119;DHT22;6123;48.864;9.200;2022-09-17T02:39:52;9.90;99.90
12119;DHT22;6123;48.864;9.200;2022-09-17T02:45:34;9.90;99.90
12119;DHT22;6123;48.864;9.200;2022-09-17T02:51:06;9.90;99.90
12119;DHT22;6123;48.864;9.200;2022-09-17T02:53:44;9.30;99.90
12119;DHT22;6123;48.864;9.200;2022-09-17T02:59:19;9.90;99.90
12119;DHT22;6123;48.864;9.200;2022-09-17T03:02:00;9.90;99.90
12119;DHT22;6123;48.864;9.200;2022-09-17T03:04:30;10.00;99.90
12119;DHT22;6123;48.864;9.200;2022-09-17T03:06:56;9.90;99.90
12119;DHT22;6123;48.864;9.200;2022-09-17T03:09:24;9.80;99.90
12119;DHT22;6123;48.864;9.200;2022-09-17T03:11:50;9.80;99.90
12119;DHT22;6123;48.864;9.200;2022-09-17T03:14:15;9.80;99.90
12119;DHT22;6123;48.864;9.200;2022-09-17T03:16:47;9.70;99.90
12119;DHT22;6123;48.864;9.200;2022-09-17T03:19:13;9.70;99.90
12119;DHT22;6123;48.864;9.200;2022-09-17T03:21:42;9.60;99.90
12119;DHT22;6123;48.864;9.200;2022-09-17T03:24:07;9.60;99.90
12119;DHT22;6123;48.864;9.200;2022-09-17T03:26:38;9.60;99.90
12119;DHT22;6123;48.864;9.200;2022-09-17T03:29:04;9.60;99.90
12119;DHT22;6123;48.864;9.200;2022-09-17T03:31:30;9.50;99.90
12119;DHT22;6123;48.864;9.200;2022-09-17T03:33:58;9.50;99.90
12119;DHT22;6123;48.864;9.200;2022-09-17T03:36:24;9.50;99.90
12119;DHT22;6123;48.864;9.200;2022-09-17T03:38:56;9.40;99.90
12119;DHT22;6123;48.864;9.200;2022-09-17T03:41:23;9.50;99.90
12119;DHT22;6123;48.864;9.200;2022-09-17T03:43:49;9.40;99.90
12119;DHT22;6123;48.864;9.200;2022-09-17T03:46:16;9.40;99.90
12119;DHT22;6123;48.864;9.200;2022-09-17T03:48:42;9.50;99.90
12119;DHT22;6123;48.864;9.200;2022-09-17T03:51:08;9.60;99.90
12119;DHT22;6123;48.864;9.200;2022-09-17T03:53:34;9.60;99.90
12119;DHT22;6123;48.864;9.200;2022-09-17T03:56:04;9.50;99.90
12119;DHT22;6123;48.864;9.200;2022-09-17T03:58:30;9.50;99.90
12119;DHT22;6123;48.864;9.200;2022-09-17T04:00:56;9.50;99.90
12119;DHT22;6123;48.864;9.200;2022-09-17T04:03:26;9.40;99.90
12119;DHT22;6123;48.864;9.200;2022-09-17T04:05:55;9.40;99.90
12119;DHT22;6123;48.864;9.200;2022-09-17T04:08:21;9.30;99.90
12119;DHT22;6123;48.864;9.200;2022-09-17T04:10:50;9.30;99.90
12119;DHT22;6123;48.864;9.200;2022-09-17T04:13:21;9.30;99.90
12119;DHT22;6123;48.864;9.200;2022-09-17T04:15:47;9.30;99.90
12119;DHT22;6123;48.864;9.200;2022-09-17T04:18:13;9.20;99.90
12119;DHT22;6123;48.864;9.200;2022-09-17T04:20:39;9.20;99.90
12119;DHT22;6123;48.864;9.200;2022-09-17T04:23:04;9.20;99.90
12119;DHT22;6123;48.864;9.200;2022-09-17T04:25:32;9.30;99.90
12119;DHT22;6123;48.864;9.200;2022-09-17T04:27:57;9.30;99.90
12119;DHT22;6123;48.864;9.200;2022-09-17T04:30:23;9.30;99.90
12119;DHT22;6123;48.864;9.200;2022-09-17T04:32:49;9.30;99.90
12119;DHT22;6123;48.864;9.200;2022-09-17T04:35:14;9.30;99.90
12119;DHT22;6123;48.864;9.200;2022-09-17T04:37:43;9.30;99.90
12119;DHT22;6123;48.864;9.200;2022-09-17T04:40:18;9.30;99.90
12119;DHT22;6123;48.864;9.200;2022-09-17T04:42:46;9.30;99.90
12119;DHT22;6123;48.864;9.200;2022-09-17T04:45:12;9.40;99.90
12119;DHT22;6123;48.864;9.200;2022-09-17T04:47:40;9.40;99.90
12119;DHT22;6123;48.864;9.200;2022-09-17T04:50:06;9.50;99.90
12119;DHT22;6123;48.864;9.200;2022-09-17T04:52:31;9.50;99.90
12119;DHT22;6123;48.864;9.200;2022-09-17T04:54:58;9.60;99.90
12119;DHT22;6123;48.864;9.200;2022-09-17T04:57:23;9.50;99.90
12119;DHT22;6123;48.864;9.200;2022-09-17T04:59:52;9.50;99.90
12119;DHT22;6123;48.864;9.200;2022-09-17T05:02:18;9.60;99.90
12119;DHT22;6123;48.864;9.200;2022-09-17T05:04:46;9.60;99.90
12119;DHT22;6123;48.864;9.200;2022-09-17T05:07:11;9.50;99.90
12119;DHT22;6123;48.864;9.200;2022-09-17T05:09:37;9.50;99.90
12119;DHT22;6123;48.864;9.200;2022-09-17T05:12:03;9.40;99.90
12119;DHT22;6123;48.864;9.200;2022-09-17T05:14:28;9.50;99.90
12119;DHT22;6123;48.864;9.200;2022-09-17T05:16:54;9.50;99.90
12119;DHT22;6123;48.864;9.200;2022-09-17T05:19:19;9.40;99.90
12119;DHT22;6123;48.864;9.200;2022-09-17T05:21:45;9.40;99.90
12119;DHT22;6123;48.864;9.200;2022-09-17T05:24:13;9.30;99.90
12119;DHT22;6123;48.864;9.200;2022-09-17T05:26:38;9.30;99.90
12119;DHT22;6123;48.864;9.200;2022-09-17T05:29:05;9.30;99.90
12119;DHT22;6123;48.864;9.200;2022-09-17T05:31:30;9.30;99.90
12119;DHT22;6123;48.864;9.200;2022-09-17T05:33:57;9.40;99.90
12119;DHT22;6123;48.864;9.200;2022-09-17T05:36:23;9.30;99.90
12119;DHT22;6123;48.864;9.200;2022-09-17T05:38:49;9.40;99.90
12119;DHT22;6123;48.864;9.200;2022-09-17T05:41:15;9.40;99.90
12119;DHT22;6123;48.864;9.200;2022-09-17T05:43:42;9.30;99.90
12119;DHT22;6123;48.864;9.200;2022-09-17T05:46:08;9.40;99.90
12119;DHT22;6123;48.864;9.200;2022-09-17T05:48:33;9.40;99.90
12119;DHT22;6123;48.864;9.200;2022-09-17T05:50:59;9.40;99.90
12119;DHT22;6123;48.864;9.200;2022-09-17T05:53:25;9.40;99.90
12119;DHT22;6123;48.864;9.200;2022-09-17T05:55:55;9.50;99.90
12119;DHT22;6123;48.864;9.200;2022-09-17T05:58:24;9.60;99.90
12119;DHT22;6123;48.864;9.200;2022-09-17T06:00:52;9.60;99.90
12119;DHT22;6123;48.864;9.200;2022-09-17T06:03:19;9.60;99.90
12119;DHT22;6123;48.864;9.200;2022-09-17T06:06:00;9.60;99.90
12119;DHT22;6123;48.864;9.200;2022-09-17T06:08:27;9.60;99.90
12119;DHT22;6123;48.864;9.200;2022-09-17T06:10:53;9.70;99.90
12119;DHT22;6123;48.864;9.200;2022-09-17T06:13:19;9.60;99.90
12119;DHT22;6123;48.864;9.200;2022-09-17T06:15:49;9.60;99.90
12119;DHT22;6123;48.864;9.200;2022-09-17T06:18:16;9.60;99.90
12119;DHT22;6123;48.864;9.200;2022-09-17T06:20:41;9.20;99.90
12119;DHT22;6123;48.864;9.200;2022-09-17T06:23:07;12.80;99.90
12119;DHT22;6123;48.864;9.200;2022-09-17T06:25:35;9.70;99.90
12119;DHT22;6123;48.864;9.200;2022-09-17T06:30:29;9.80;99.90
12119;DHT22;6123;48.864;9.200;2022-09-17T06:35:20;9.70;99.90
12119;DHT22;6123;48.864;9.200;2022-09-17T06:37:50;9.70;99.90
12119;DHT22;6123;48.864;9.200;2022-09-17T06:40:16;9.80;99.90
12119;DHT22;6123;48.864;9.200;2022-09-17T06:42:44;9.90;99.90
12119;DHT22;6123;48.864;9.200;2022-09-17T06:45:12;9.90;99.90
12119;DHT22;6123;48.864;9.200;2022-09-17T06:47:37;9.90;99.90
12119;DHT22;6123;48.864;9.200;2022-09-17T06:50:05;9.80;99.90
12119;DHT22;6123;48.864;9.200;2022-09-17T06:52:31;9.80;99.90
12119;DHT22;6123;48.864;9.200;2022-09-17T06:57:25;9.20;99.90
12119;DHT22;6123;48.864;9.200;2022-09-17T06:59:50;9.60;99.90
12119;DHT22;6123;48.864;9.200;2022-09-17T07:02:16;9.70;99.90
12119;DHT22;6123;48.864;9.200;2022-09-17T07:04:41;8.30;99.90
12119;DHT22;6123;48.864;9.200;2022-09-17T07:07:07;9.70;99.90
12119;DHT22;6123;48.864;9.200;2022-09-17T07:09:34;9.70;99.90
12119;DHT22;6123;48.864;9.200;2022-09-17T07:14:25;9.50;99.90
12119;DHT22;6123;48.864;9.200;2022-09-17T07:16:53;9.40;99.90
12119;DHT22;6123;48.864;9.200;2022-09-17T07:19:19;9.50;99.90
12119;DHT22;6123;48.864;9.200;2022-09-17T07:21:47;9.50;99.90
12119;DHT22;6123;48.864;9.200;2022-09-17T07:24:13;9.30;99.90
12119;DHT22;6123;48.864;9.200;2022-09-17T07:29:07;9.20;99.90
12119;DHT22;6123;48.864;9.200;2022-09-17T07:33:59;10.60;99.90
12119;DHT22;6123;48.864;9.200;2022-09-17T07:38:52;9.30;99.90
12119;DHT22;6123;48.864;9.200;2022-09-17T07:41:18;9.20;99.90
12119;DHT22;6123;48.864;9.200;2022-09-17T07:43:44;9.20;99.90
12119;DHT22;6123;48.864;9.200;2022-09-17T07:46:15;9.10;99.90
12119;DHT22;6123;48.864;9.200;2022-09-17T07:48:43;9.10;99.90
12119;DHT22;6123;48.864;9.200;2022-09-17T07:51:18;9.10;99.90
12119;DHT22;6123;48.864;9.200;2022-09-17T07:53:44;9.20;99.90
12119;DHT22;6123;48.864;9.200;2022-09-17T07:56:11;9.30;99.90
12119;DHT22;6123;48.864;9.200;2022-09-17T07:58:36;9.40;99.90
12119;DHT22;6123;48.864;9.200;2022-09-17T08:01:03;9.60;99.90
12119;DHT22;6123;48.864;9.200;2022-09-17T08:03:30;9.60;99.90
12119;DHT22;6123;48.864;9.200;2022-09-17T08:06:12;9.60;99.90
12119;DHT22;6123;48.864;9.200;2022-09-17T08:08:41;9.70;99.90
12119;DHT22;6123;48.864;9.200;2022-09-17T08:11:18;10.30;99.90
12119;DHT22;6123;48.864;9.200;2022-09-17T08:13:51;9.80;99.90
12119;DHT22;6123;48.864;9.200;2022-09-17T08:16:20;9.90;99.90
12119;DHT22;6123;48.864;9.200;2022-09-17T08:18:47;9.80;99.90
12119;DHT22;6123;48.864;9.200;2022-09-17T08:21:15;9.90;99.90
12119;DHT22;6123;48.864;9.200;2022-09-17T08:23:42;9.90;99.90
12119;DHT22;6123;48.864;9.200;2022-09-17T08:26:15;9.90;99.90
12119;DHT22;6123;48.864;9.200;2022-09-17T08:28:49;10.10;99.90
12119;DHT22;6123;48.864;9.200;2022-09-17T08:31:17;10.00;99.90
12119;DHT22;6123;48.864;9.200;2022-09-17T08:33:43;10.20;99.90
12119;DHT22;6123;48.864;9.200;2022-09-17T08:36:11;10.30;99.90
12119;DHT22;6123;48.864;9.200;2022-09-17T08:38:42;10.20;99.90
12119;DHT22;6123;48.864;9.200;2022-09-17T08:43:56;10.30;99.90
12119;DHT22;6123;48.864;9.200;2022-09-17T08:46:24;10.40;99.90
12119;DHT22;6123;48.864;9.200;2022-09-17T08:54:41;10.60;99.90
12119;DHT22;6123;48.864;9.200;2022-09-17T09:00:15;10.70;99.90
12119;DHT22;6123;48.864;9.200;2022-09-17T09:05:51;10.60;99.90
12119;DHT22;6123;48.864;9.200;2022-09-17T09:08:40;10.80;99.90
12119;DHT22;6123;48.864;9.200;2022-09-17T09:11:21;10.70;99.90
12119;DHT22;6123;48.864;9.200;2022-09-17T09:14:03;10.70;99.90
12119;DHT22;6123;48.864;9.200;2022-09-17T09:16:33;10.80;99.90
12119;DHT22;6123;48.864;9.200;2022-09-17T09:19:23;10.70;99.90
12119;DHT22;6123;48.864;9.200;2022-09-17T09:27:27;10.90;99.90
12119;DHT22;6123;48.864;9.200;2022-09-17T09:35:29;11.00;99.90
12119;DHT22;6123;48.864;9.200;2022-09-17T09:46:22;11.40;99.90
12119;DHT22;6123;48.864;9.200;2022-09-17T09:51:53;11.20;99.90
12119;DHT22;6123;48.864;9.200;2022-09-17T09:54:46;11.40;99.90
12119;DHT22;6123;48.864;9.200;2022-09-17T09:57:18;11.20;99.90
12119;DHT22;6123;48.864;9.200;2022-09-17T09:59:46;11.40;99.90
12119;DHT22;6123;48.864;9.200;2022-09-17T10:02:12;11.50;99.90
12119;DHT22;6123;48.864;9.200;2022-09-17T10:04:38;11.50;99.90
12119;DHT22;6123;48.864;9.200;2022-09-17T10:07:07;11.40;99.90
12119;DHT22;6123;48.864;9.200;2022-09-17T10:09:35;11.40;99.90
12119;DHT22;6123;48.864;9.200;2022-09-17T10:14:35;11.40;99.90
12119;DHT22;6123;48.864;9.200;2022-09-17T10:20:13;11.30;99.90
12119;DHT22;6123;48.864;9.200;2022-09-17T10:22:43;11.50;99.90
12119;DHT22;6123;48.864;9.200;2022-09-17T10:25:26;11.50;99.90
12119;DHT22;6123;48.864;9.200;2022-09-17T10:27:54;11.60;99.90
12119;DHT22;6123;48.864;9.200;2022-09-17T10:30:21;11.90;99.90
12119;DHT22;6123;48.864;9.200;2022-09-17T10:33:19;11.90;99.90
12119;DHT22;6123;48.864;9.200;2022-09-17T10:36:01;12.30;99.90
12119;DHT22;6123;48.864;9.200;2022-09-17T10:38:28;12.70;99.90
12119;DHT22;6123;48.864;9.200;2022-09-17T10:43:39;13.00;99.90
12119;DHT22;6123;48.864;9.200;2022-09-17T10:46:13;12.80;99.90
12119;DHT22;6123;48.864;9.200;2022-09-17T10:48:43;13.00;99.90
12119;DHT22;6123;48.864;9.200;2022-09-17T10:51:10;13.10;99.90
12119;DHT22;6123;48.864;9.200;2022-09-17T10:54:05;13.10;99.90
12119;DHT22;6123;48.864;9.200;2022-09-17T10:56:34;13.40;99.90
12119;DHT22;6123;48.864;9.200;2022-09-17T11:12:27;13.80;99.90
12119;DHT22;6123;48.864;9.200;2022-09-17T11:15:13;13.70;99.90
12119;DHT22;6123;48.864;9.200;2022-09-17T11:25:54;14.00;99.90
12119;DHT22;6123;48.864;9.200;2022-09-17T11:37:07;13.70;99.90
12119;DHT22;6123;48.864;9.200;2022-09-17T11:42:29;13.90;99.90
12119;DHT22;6123;48.864;9.200;2022-09-17T11:45:10;14.30;99.90
12119;DHT22;6123;48.864;9.200;2022-09-17T11:48:05;14.10;99.90
12119;DHT22;6123;48.864;9.200;2022-09-17T11:50:41;13.90;99.90
12119;DHT22;6123;48.864;9.200;2022-09-17T11:55:46;13.70;99.90
12119;DHT22;6123;48.864;9.200;2022-09-17T11:58:21;13.60;99.90
12119;DHT22;6123;48.864;9.200;2022-09-17T12:00:58;12.80;99.90
12119;DHT22;6123;48.864;9.200;2022-09-17T12:06:21;12.50;99.90
12119;DHT22;6123;48.864;9.200;2022-09-17T12:09:00;12.60;99.90
12119;DHT22;6123;48.864;9.200;2022-09-17T12:12:23;12.70;99.90
12119;DHT22;6123;48.864;9.200;2022-09-17T12:14:50;12.60;99.90
12119;DHT22;6123;48.864;9.200;2022-09-17T12:17:41;12.60;99.90
12119;DHT22;6123;48.864;9.200;2022-09-17T12:20:29;12.60;99.90
12119;DHT22;6123;48.864;9.200;2022-09-17T12:22:57;12.50;99.90
12119;DHT22;6123;48.864;9.200;2022-09-17T12:25:35;12.70;99.90
12119;DHT22;6123;48.864;9.200;2022-09-17T12:28:12;12.50;99.90
12119;DHT22;6123;48.864;9.200;2022-09-17T12:30:52;12.20;99.90
12119;DHT22;6123;48.864;9.200;2022-09-17T12:33:49;12.50;99.90
12119;DHT22;6123;48.864;9.200;2022-09-17T12:39:32;12.60;99.90
12119;DHT22;6123;48.864;9.200;2022-09-17T12:50:18;12.60;99.90
12119;DHT22;6123;48.864;9.200;2022-09-17T13:00:43;12.50;99.90
12119;DHT22;6123;48.864;9.200;2022-09-17T13:09:45;12.60;99.90
12119;DHT22;6123;48.864;9.200;2022-09-17T13:12:24;12.70;99.90
12119;DHT22;6123;48.864;9.200;2022-09-17T13:18:27;12.40;99.90
12119;DHT22;6123;48.864;9.200;2022-09-17T13:20:58;12.50;99.90
12119;DHT22;6123;48.864;9.200;2022-09-17T13:23:53;13.10;99.90
12119;DHT22;6123;48.864;9.200;2022-09-17T13:26:31;13.40;99.90
12119;DHT22;6123;48.864;9.200;2022-09-17T13:28:57;13.20;99.90
12119;DHT22;6123;48.864;9.200;2022-09-17T13:34:28;12.80;99.90
12119;DHT22;6123;48.864;9.200;2022-09-17T13:37:00;12.70;99.90
12119;DHT22;6123;48.864;9.200;2022-09-17T13:39:42;12.70;99.90
12119;DHT22;6123;48.864;9.200;2022-09-17T13:42:15;13.10;99.90
12119;DHT22;6123;48.864;9.200;2022-09-17T13:44:46;13.10;99.90
12119;DHT22;6123;48.864;9.200;2022-09-17T13:47:17;13.10;99.90
12119;DHT22;6123;48.864;9.200;2022-09-17T13:49:49;13.20;99.90
12119;DHT22;6123;48.864;9.200;2022-09-17T13:54:57;13.30;99.90
12119;DHT22;6123;48.864;9.200;2022-09-17T13:57:26;13.20;99.90
12119;DHT22;6123;48.864;9.200;2022-09-17T13:59:55;13.10;99.90
12119;DHT22;6123;48.864;9.200;2022-09-17T14:04:54;13.10;99.90
12119;DHT22;6123;48.864;9.200;2022-09-17T14:10:40;13.20;99.90
12119;DHT22;6123;48.864;9.200;2022-09-17T14:16:13;13.30;99.90
12119;DHT22;6123;48.864;9.200;2022-09-17T14:20:53;13.30;99.90
12119;DHT22;6123;48.864;9.200;2022-09-17T14:23:23;13.60;99.90
12119;DHT22;6123;48.864;9.200;2022-09-17T14:25:53;13.90;99.90
12119;DHT22;6123;48.864;9.200;2022-09-17T14:28:44;14.20;99.90
12119;DHT22;6123;48.864;9.200;2022-09-17T14:31:17;14.50;99.90
12119;DHT22;6123;48.864;9.200;2022-09-17T14:33:45;14.70;99.90
12119;DHT22;6123;48.864;9.200;2022-09-17T14:36:17;14.80;99.90
12119;DHT22;6123;48.864;9.200;2022-09-17T14:38:47;15.10;99.90
12119;DHT22;6123;48.864;9.200;2022-09-17T14:43:59;15.20;99.90
12119;DHT22;6123;48.864;9.200;2022-09-17T14:46:34;15.20;99.90
12119;DHT22;6123;48.864;9.200;2022-09-17T14:49:23;15.20;99.90
12119;DHT22;6123;48.864;9.200;2022-09-17T14:51:51;14.60;99.90
12119;DHT22;6123;48.864;9.200;2022-09-17T14:54:30;14.60;99.90
12119;DHT22;6123;48.864;9.200;2022-09-17T14:57:20;14.00;99.90
12119;DHT22;6123;48.864;9.200;2022-09-17T14:59:56;14.00;99.90
12119;DHT22;6123;48.864;9.200;2022-09-17T15:04:54;14.10;99.90
12119;DHT22;6123;48.864;9.200;2022-09-17T15:07:27;13.90;99.90
12119;DHT22;6123;48.864;9.200;2022-09-17T15:10:06;14.10;99.90
12119;DHT22;6123;48.864;9.200;2022-09-17T15:12:36;14.10;99.90
12119;DHT22;6123;48.864;9.200;2022-09-17T15:15:04;14.40;99.90
12119;DHT22;6123;48.864;9.200;2022-09-17T15:17:32;14.10;99.90
12119;DHT22;6123;48.864;9.200;2022-09-17T15:19:58;14.20;99.90
12119;DHT22;6123;48.864;9.200;2022-09-17T15:22:33;14.00;99.90
12119;DHT22;6123;48.864;9.200;2022-09-17T15:25:14;13.90;99.90
12119;DHT22;6123;48.864;9.200;2022-09-17T15:27:45;13.70;99.90
12119;DHT22;6123;48.864;9.200;2022-09-17T15:30:15;13.50;99.90
12119;DHT22;6123;48.864;9.200;2022-09-17T15:32:57;13.50;99.90
12119;DHT22;6123;48.864;9.200;2022-09-17T15:37:56;13.60;99.90
12119;DHT22;6123;48.864;9.200;2022-09-17T15:40:40;13.50;99.90
12119;DHT22;6123;48.864;9.200;2022-09-17T15:43:17;13.50;99.90
12119;DHT22;6123;48.864;9.200;2022-09-17T15:45:45;13.50;99.90
12119;DHT22;6123;48.864;9.200;2022-09-17T15:50:56;13.30;99.90
12119;DHT22;6123;48.864;9.200;2022-09-17T15:53:27;13.60;99.90
12119;DHT22;6123;48.864;9.200;2022-09-17T15:56:06;14.20;99.90
12119;DHT22;6123;48.864;9.200;2022-09-17T15:58:51;14.60;99.90
12119;DHT22;6123;48.864;9.200;2022-09-17T16:08:56;13.70;99.90
12119;DHT22;6123;48.864;9.200;2022-09-17T16:11:27;13.60;99.90
12119;DHT22;6123;48.864;9.200;2022-09-17T16:13:55;13.90;99.90
12119;DHT22;6123;48.864;9.200;2022-09-17T16:16:27;13.90;99.90
12119;DHT22;6123;48.864;9.200;2022-09-17T16:18:56;13.60;99.90
12119;DHT22;6123;48.864;9.200;2022-09-17T16:21:21;13.70;99.90
12119;DHT22;6123;48.864;9.200;2022-09-17T16:23:47;13.80;99.90
12119;DHT22;6123;48.864;9.200;2022-09-17T16:26:17;14.40;99.90
12119;DHT22;6123;48.864;9.200;2022-09-17T16:28:44;14.10;99.90
12119;DHT22;6123;48.864;9.200;2022-09-17T16:31:12;13.70;99.90
12119;DHT22;6123;48.864;9.200;2022-09-17T16:33:40;13.70;99.90
12119;DHT22;6123;48.864;9.200;2022-09-17T16:36:08;13.90;99.90
12119;DHT22;6123;48.864;9.200;2022-09-17T16:38:35;13.50;99.90
12119;DHT22;6123;48.864;9.200;2022-09-17T16:41:03;13.40;99.90
12119;DHT22;6123;48.864;9.200;2022-09-17T16:43:29;13.50;99.90
12119;DHT22;6123;48.864;9.200;2022-09-17T16:46:03;13.40;99.90
12119;DHT22;6123;48.864;9.200;2022-09-17T16:48:29;13.50;99.90
12119;DHT22;6123;48.864;9.200;2022-09-17T16:50:58;13.40;99.90
12119;DHT22;6123;48.864;9.200;2022-09-17T16:53:24;13.20;99.90
12119;DHT22;6123;48.864;9.200;2022-09-17T16:55:50;13.20;99.90
12119;DHT22;6123;48.864;9.200;2022-09-17T16:58:17;13.10;99.90
12119;DHT22;6123;48.864;9.200;2022-09-17T17:00:44;13.10;99.90
12119;DHT22;6123;48.864;9.200;2022-09-17T17:03:13;13.00;99.90
12119;DHT22;6123;48.864;9.200;2022-09-17T17:05:40;12.90;99.90
12119;DHT22;6123;48.864;9.200;2022-09-17T17:08:06;13.00;99.90
12119;DHT22;6123;48.864;9.200;2022-09-17T17:10:36;12.80;99.90
12119;DHT22;6123;48.864;9.200;2022-09-17T17:13:02;12.90;99.90
12119;DHT22;6123;48.864;9.200;2022-09-17T17:15:28;12.70;99.90
12119;DHT22;6123;48.864;9.200;2022-09-17T17:17:54;11.60;99.90
12119;DHT22;6123;48.864;9.200;2022-09-17T17:20:23;11.00;99.90
12119;DHT22;6123;48.864;9.200;2022-09-17T17:22:48;10.80;99.90
12119;DHT22;6123;48.864;9.200;2022-09-17T17:25:16;10.70;99.90
12119;DHT22;6123;48.864;9.200;2022-09-17T17:27:42;10.60;99.90
12119;DHT22;6123;48.864;9.200;2022-09-17T17:30:10;10.60;99.90
12119;DHT22;6123;48.864;9.200;2022-09-17T17:32:44;10.60;99.90
12119;DHT22;6123;48.864;9.200;2022-09-17T17:35:13;10.50;99.90
12119;DHT22;6123;48.864;9.200;2022-09-17T17:37:38;10.40;99.90
12119;DHT22;6123;48.864;9.200;2022-09-17T17:40:04;10.50;99.90
12119;DHT22;6123;48.864;9.200;2022-09-17T17:42:37;10.60;99.90
12119;DHT22;6123;48.864;9.200;2022-09-17T17:45:07;10.50;99.90
12119;DHT22;6123;48.864;9.200;2022-09-17T17:47:33;10.60;99.90
12119;DHT22;6123;48.864;9.200;2022-09-17T17:50:02;10.60;99.90
12119;DHT22;6123;48.864;9.200;2022-09-17T17:52:30;10.60;99.90
12119;DHT22;6123;48.864;9.200;2022-09-17T17:54:56;10.70;99.90
12119;DHT22;6123;48.864;9.200;2022-09-17T17:57:21;10.80;99.90
12119;DHT22;6123;48.864;9.200;2022-09-17T17:59:47;10.90;99.90
12119;DHT22;6123;48.864;9.200;2022-09-17T18:02:13;10.90;99.90
12119;DHT22;6123;48.864;9.200;2022-09-17T18:04:40;11.00;99.90
12119;DHT22;6123;48.864;9.200;2022-09-17T18:07:06;11.00;99.90
12119;DHT22;6123;48.864;9.200;2022-09-17T18:09:32;11.00;99.90
12119;DHT22;6123;48.864;9.200;2022-09-17T18:11:57;11.00;99.90
12119;DHT22;6123;48.864;9.200;2022-09-17T18:14:23;11.00;99.90
12119;DHT22;6123;48.864;9.200;2022-09-17T18:16:49;11.00;99.90
12119;DHT22;6123;48.864;9.200;2022-09-17T18:19:14;11.00;99.90
12119;DHT22;6123;48.864;9.200;2022-09-17T18:21:42;11.00;99.90
12119;DHT22;6123;48.864;9.200;2022-09-17T18:24:08;11.10;99.90
12119;DHT22;6123;48.864;9.200;2022-09-17T18:26:34;11.00;99.90
12119;DHT22;6123;48.864;9.200;2022-09-17T18:29:00;11.00;99.90
12119;DHT22;6123;48.864;9.200;2022-09-17T18:31:34;11.00;99.90
12119;DHT22;6123;48.864;9.200;2022-09-17T18:34:12;11.20;99.90
12119;DHT22;6123;48.864;9.200;2022-09-17T18:36:38;11.00;99.90
12119;DHT22;6123;48.864;9.200;2022-09-17T18:39:09;11.00;99.90
12119;DHT22;6123;48.864;9.200;2022-09-17T18:41:36;11.00;99.90
12119;DHT22;6123;48.864;9.200;2022-09-17T18:44:07;10.90;99.90
12119;DHT22;6123;48.864;9.200;2022-09-17T18:46:33;10.80;99.90
12119;DHT22;6123;48.864;9.200;2022-09-17T18:49:00;10.80;99.90
12119;DHT22;6123;48.864;9.200;2022-09-17T18:51:27;10.70;99.90
12119;DHT22;6123;48.864;9.200;2022-09-17T18:53:53;10.70;99.90
12119;DHT22;6123;48.864;9.200;2022-09-17T18:56:24;10.80;99.90
12119;DHT22;6123;48.864;9.200;2022-09-17T18:58:52;10.80;99.90
12119;DHT22;6123;48.864;9.200;2022-09-17T19:01:23;10.80;99.90
12119;DHT22;6123;48.864;9.200;2022-09-17T19:03:49;10.70;99.90
12119;DHT22;6123;48.864;9.200;2022-09-17T19:06:15;10.80;99.90
12119;DHT22;6123;48.864;9.200;2022-09-17T19:08:42;10.80;99.90
12119;DHT22;6123;48.864;9.200;2022-09-17T19:11:08;10.70;99.90
12119;DHT22;6123;48.864;9.200;2022-09-17T19:13:43;10.70;99.90
12119;DHT22;6123;48.864;9.200;2022-09-17T19:16:11;10.70;99.90
12119;DHT22;6123;48.864;9.200;2022-09-17T19:18:37;10.70;99.90
12119;DHT22;6123;48.864;9.200;2022-09-17T19:21:05;10.60;99.90
12119;DHT22;6123;48.864;9.200;2022-09-17T19:23:31;10.50;99.90
12119;DHT22;6123;48.864;9.200;2022-09-17T19:26:07;10.40;99.90
12119;DHT22;6123;48.864;9.200;2022-09-17T19:28:34;10.90;99.90
12119;DHT22;6123;48.864;9.200;2022-09-17T19:31:15;10.20;99.90
12119;DHT22;6123;48.864;9.200;2022-09-17T19:33:41;10.10;99.90
12119;DHT22;6123;48.864;9.200;2022-09-17T19:36:11;9.90;99.90